createdAt,value
2023-01-06T00:00:29.685Z,100911.47
2023-01-06T00:01:32.533Z,100910.59
2023-01-06T00:02:35.118Z,100901.53
2023-01-06T00:03:37.900Z,100903.22
2023-01-06T00:04:40.409Z,100905.97
2023-01-06T00:05:43.281Z,100907.03
2023-01-06T00:06:45.506Z,100907.03
2023-01-06T00:07:52.124Z,100904.28
2023-01-06T00:08:59.056Z,100910.59
2023-01-06T00:10:02.518Z,100914.22
2023-01-06T00:11:10.142Z,100913.34
2023-01-06T00:12:12.374Z,100911.47
2023-01-06T00:13:14.594Z,100913.34
2023-01-06T00:14:17.085Z,100914.44
2023-01-06T00:15:19.994Z,100904.50
2023-01-06T00:16:22.246Z,100906.19
2023-01-06T00:17:25.985Z,100902.59
2023-01-06T00:18:28.173Z,100908.94
2023-01-06T00:19:30.306Z,100903.44
2023-01-06T00:20:34.276Z,100903.44
2023-01-06T00:21:36.521Z,100897.09
2023-01-06T00:22:43.290Z,100906.19
2023-01-06T00:23:45.594Z,100899.84
2023-01-06T00:24:47.848Z,100907.25
2023-01-06T00:26:10.507Z,100904.50
2023-01-06T00:27:12.670Z,100906.19
2023-01-06T00:28:14.805Z,100896.25
2023-01-06T00:29:17.041Z,100896.25
2023-01-06T00:30:19.322Z,100901.53
2023-01-06T00:31:22.632Z,100896.25
2023-01-06T00:32:27.827Z,100901.53
2023-01-06T00:33:29.973Z,100897.94
2023-01-06T00:34:32.209Z,100896.25
2023-01-06T00:35:35.650Z,100899.00
2023-01-06T00:36:39.417Z,100899.00
2023-01-06T00:37:41.601Z,100903.44
2023-01-06T00:38:43.788Z,100899.84
2023-01-06T00:39:45.974Z,100901.75
2023-01-06T00:40:48.144Z,100899.84
2023-01-06T00:42:06.096Z,100902.81
2023-01-06T00:43:08.995Z,100900.06
2023-01-06T00:44:11.159Z,100902.81
2023-01-06T00:45:13.439Z,100901.13
2023-01-06T00:46:15.624Z,100903.88
2023-01-06T00:47:18.279Z,100904.75
2023-01-06T00:48:20.458Z,100894.81
2023-01-06T00:49:23.832Z,100893.94
2023-01-06T00:50:26.150Z,100892.88
2023-01-06T00:51:28.425Z,100892.06
2023-01-06T00:52:30.595Z,100895.88
2023-01-06T00:53:34.685Z,100891.44
2023-01-06T00:54:37.363Z,100898.63
2023-01-06T00:55:40.451Z,100896.91
2023-01-06T00:56:46.313Z,100896.09
2023-01-06T00:57:52.723Z,100897.97
2023-01-06T00:58:55.164Z,100890.59
2023-01-06T00:59:57.599Z,100893.56
2023-01-06T01:01:04.300Z,100899.91
2023-01-06T01:02:07.027Z,100895.47
2023-01-06T01:03:09.314Z,100897.38
2023-01-06T01:04:12.136Z,100900.13
2023-01-06T01:05:14.919Z,100906.47
2023-01-06T01:06:18.091Z,100897.63
2023-01-06T01:07:23.127Z,100899.28
2023-01-06T01:08:25.267Z,100895.94
2023-01-06T01:09:30.121Z,100895.06
2023-01-06T01:10:33.224Z,100890.44
2023-01-06T01:11:54.775Z,100893.19
2023-01-06T01:12:56.946Z,100895.94
2023-01-06T01:13:59.910Z,100897.81
2023-01-06T01:15:02.109Z,100899.75
2023-01-06T01:16:08.632Z,100896.16
2023-01-06T01:17:13.364Z,100899.09
2023-01-06T01:18:15.743Z,100901.84
2023-01-06T01:19:18.519Z,100899.97
2023-01-06T01:20:20.737Z,100903.78
2023-01-06T01:21:22.974Z,100896.34
2023-01-06T01:22:27.773Z,100900.19
2023-01-06T01:23:29.941Z,100893.00
2023-01-06T01:24:32.250Z,100886.47
2023-01-06T01:25:34.709Z,100888.34
2023-01-06T01:26:37.142Z,100892.16
2023-01-06T01:27:39.296Z,100890.28
2023-01-06T01:28:41.770Z,100893.00
2023-01-06T01:29:44.394Z,100895.75
2023-01-06T01:30:46.561Z,100885.81
2023-01-06T01:31:48.990Z,100896.00
2023-01-06T01:32:51.162Z,100889.63
2023-01-06T01:33:53.418Z,100896.00
2023-01-06T01:34:56.502Z,100891.56
2023-01-06T01:36:05.153Z,100891.56
2023-01-06T01:37:07.445Z,100892.38
2023-01-06T01:38:10.032Z,100892.38
2023-01-06T01:39:15.989Z,100878.88
2023-01-06T01:40:19.169Z,100891.78
2023-01-06T01:41:22.884Z,100887.13
2023-01-06T01:42:25.221Z,100883.31
2023-01-06T01:43:47.205Z,100879.06
2023-01-06T01:44:55.196Z,100883.72
2023-01-06T01:45:57.403Z,100886.47
2023-01-06T01:46:59.626Z,100881.81
2023-01-06T01:48:35.321Z,100882.88
2023-01-06T01:49:41.034Z,100880.97
2023-01-06T01:50:48.497Z,100879.31
2023-01-06T01:51:53.311Z,100879.31
2023-01-06T01:53:01.299Z,100878.69
2023-01-06T01:54:08.073Z,100887.78
2023-01-06T01:55:11.227Z,100880.59
2023-01-06T01:56:18.900Z,100884.41
2023-01-06T01:57:27.468Z,100879.75
2023-01-06T01:58:38.733Z,100867.91
2023-01-06T01:59:43.308Z,100872.59
2023-01-06T02:00:46.828Z,100871.72
2023-01-06T02:01:49.802Z,100870.03
2023-01-06T02:02:52.497Z,100867.28
2023-01-06T02:03:55.330Z,100873.88
2023-01-06T02:04:57.830Z,100875.75
2023-01-06T02:06:04.108Z,100868.56
2023-01-06T02:07:06.765Z,100867.75
2023-01-06T02:08:26.545Z,100864.19
2023-01-06T02:09:34.584Z,100861.44
2023-01-06T02:10:36.784Z,100857.81
2023-01-06T02:11:40.712Z,100860.56
2023-01-06T02:12:44.927Z,100858.06
2023-01-06T02:13:52.620Z,100848.97
2023-01-06T02:14:55.469Z,100854.47
2023-01-06T02:16:09.952Z,100860.56
2023-01-06T02:18:06.837Z,100861.84
2023-01-06T02:19:38.961Z,100856.59
2023-01-06T02:20:59.493Z,100851.72
2023-01-06T02:22:13.736Z,100855.75
2023-01-06T02:23:43.849Z,100851.34
2023-01-06T02:25:06.645Z,100841.63
2023-01-06T02:26:37.242Z,100845.44
2023-01-06T02:27:54.500Z,100841.00
2023-01-06T02:29:18.145Z,100840.41
2023-01-06T02:30:44.775Z,100834.91
2023-01-06T02:32:07.764Z,100833.22
2023-01-06T02:33:22.335Z,100830.72
2023-01-06T02:34:35.853Z,100833.69
2023-01-06T02:35:57.751Z,100824.59
2023-01-06T02:37:14.539Z,100832.00
2023-01-06T02:38:57.462Z,100830.31
2023-01-06T02:40:05.828Z,100828.63
2023-01-06T02:41:34.005Z,100833.50
2023-01-06T02:43:10.261Z,100831.59
2023-01-06T02:44:32.084Z,100829.06
2023-01-06T02:45:57.892Z,100831.19
2023-01-06T02:47:17.501Z,100824.00
2023-01-06T02:48:42.807Z,100827.84
2023-01-06T02:50:02.719Z,100826.16
2023-01-06T02:51:13.582Z,100825.31
2023-01-06T02:52:24.630Z,100825.31
2023-01-06T02:53:47.772Z,100821.97
2023-01-06T02:54:58.982Z,100824.69
2023-01-06T02:56:03.253Z,100815.59
2023-01-06T02:57:40.946Z,100808.22
2023-01-06T02:58:58.720Z,100806.78
2023-01-06T03:00:11.370Z,100800.41
2023-01-06T03:01:20.172Z,100796.00
2023-01-06T03:02:23.880Z,100796.84
2023-01-06T03:03:30.677Z,100797.06
2023-01-06T03:04:41.226Z,100797.91
2023-01-06T03:05:48.292Z,100797.06
2023-01-06T03:06:54.936Z,100795.38
2023-01-06T03:08:02.645Z,100796.69
2023-01-06T03:09:06.728Z,100798.38
2023-01-06T03:10:20.563Z,100797.31
2023-01-06T03:11:26.333Z,100798.13
2023-01-06T03:13:14.904Z,100789.91
2023-01-06T03:14:28.847Z,100794.34
2023-01-06T03:15:31.063Z,100792.41
2023-01-06T03:16:33.355Z,100790.53
2023-01-06T03:17:36.469Z,100781.44
2023-01-06T03:18:42.108Z,100778.69
2023-01-06T03:19:45.004Z,100781.19
2023-01-06T03:20:51.837Z,100787.56
2023-01-06T03:21:55.118Z,100784.81
2023-01-06T03:22:58.385Z,100790.28
2023-01-06T03:24:02.115Z,100791.13
2023-01-06T03:25:06.536Z,100791.97
2023-01-06T03:26:10.107Z,100783.75
2023-01-06T03:27:12.850Z,100785.63
2023-01-06T03:28:15.929Z,100782.06
2023-01-06T03:29:18.733Z,100780.13
2023-01-06T03:30:22.550Z,100778.25
2023-01-06T03:31:40.155Z,100777.41
2023-01-06T03:32:59.591Z,100778.25
2023-01-06T03:34:43.291Z,100775.50
2023-01-06T03:36:00.838Z,100775.50
2023-01-06T03:37:21.127Z,100770.84
2023-01-06T03:38:38.017Z,100769.16
2023-01-06T03:40:10.919Z,100770.84
2023-01-06T03:41:53.597Z,100763.44
2023-01-06T03:43:16.623Z,100759.88
2023-01-06T03:44:53.406Z,100765.13
2023-01-06T03:46:16.498Z,100762.59
2023-01-06T03:47:39.180Z,100756.28
2023-01-06T03:48:47.437Z,100760.91
2023-01-06T03:49:59.208Z,100762.84
2023-01-06T03:51:14.498Z,100751.84
2023-01-06T03:52:27.086Z,100757.34
2023-01-06T03:53:39.480Z,100751.00
2023-01-06T03:54:50.704Z,100749.13
2023-01-06T03:56:06.141Z,100760.91
2023-01-06T03:57:16.691Z,100751.84
2023-01-06T03:58:20.144Z,100751.00
2023-01-06T03:59:28.098Z,100753.75
2023-01-06T04:00:37.104Z,100754.59
2023-01-06T04:01:45.589Z,100752.69
2023-01-06T04:02:49.053Z,100758.41
2023-01-06T04:03:55.709Z,100750.16
2023-01-06T04:05:08.834Z,100750.16
2023-01-06T04:06:11.026Z,100739.41
2023-01-06T04:07:14.456Z,100739.66
2023-01-06T04:08:17.972Z,100741.34
2023-01-06T04:09:20.720Z,100740.47
2023-01-06T04:10:23.689Z,100738.78
2023-01-06T04:11:48.201Z,100730.56
2023-01-06T04:12:51.257Z,100733.31
2023-01-06T04:13:57.263Z,100736.91
2023-01-06T04:14:59.613Z,100728.66
2023-01-06T04:16:01.827Z,100736.03
2023-01-06T04:17:04.133Z,100735.44
2023-01-06T04:18:06.358Z,100741.75
2023-01-06T04:19:11.985Z,100739.03
2023-01-06T04:20:28.456Z,100744.28
2023-01-06T04:21:59.816Z,100738.78
2023-01-06T04:23:05.962Z,100742.41
2023-01-06T04:24:12.241Z,100745.97
2023-01-06T04:25:14.529Z,100750.63
2023-01-06T04:26:16.933Z,100739.66
2023-01-06T04:27:23.244Z,100736.03
2023-01-06T04:28:25.414Z,100736.03
2023-01-06T04:29:28.255Z,100736.28
2023-01-06T04:30:31.765Z,100737.72
2023-01-06T04:31:35.548Z,100725.91
2023-01-06T04:32:38.002Z,100731.41
2023-01-06T04:33:42.463Z,100733.09
2023-01-06T04:34:47.048Z,100719.56
2023-01-06T04:35:49.337Z,100722.13
2023-01-06T04:36:54.447Z,100710.03
2023-01-06T04:37:56.675Z,100717.22
2023-01-06T04:38:58.815Z,100713.66
2023-01-06T04:40:01.451Z,100714.72
2023-01-06T04:41:03.908Z,100707.31
2023-01-06T04:42:06.277Z,100707.31
2023-01-06T04:43:13.467Z,100712.78
2023-01-06T04:44:15.612Z,100704.56
2023-01-06T04:45:18.541Z,100704.56
2023-01-06T04:46:20.765Z,100701.81
2023-01-06T04:47:22.973Z,100707.06
2023-01-06T04:48:25.732Z,100709.81
2023-01-06T04:49:27.899Z,100706.25
2023-01-06T04:50:31.288Z,100710.91
2023-01-06T04:51:33.717Z,100704.31
2023-01-06T04:52:39.024Z,100698.84
2023-01-06T04:53:42.107Z,100705.19
2023-01-06T04:54:44.292Z,100709.00
2023-01-06T04:55:46.492Z,100707.94
2023-01-06T04:56:48.770Z,100706.88
2023-01-06T04:57:50.930Z,100704.94
2023-01-06T04:58:55.741Z,100708.53
2023-01-06T04:59:57.887Z,100691.22
2023-01-06T05:01:03.856Z,100702.19
2023-01-06T05:02:06.171Z,100701.38
2023-01-06T05:03:08.384Z,100699.47
2023-01-06T05:04:10.771Z,100699.69
2023-01-06T05:05:13.372Z,100688.72
2023-01-06T05:06:16.151Z,100691.44
2023-01-06T05:07:18.354Z,100688.47
2023-01-06T05:08:20.816Z,100690.41
2023-01-06T05:09:22.957Z,100694.19
2023-01-06T05:10:25.147Z,100695.25
2023-01-06T05:11:27.838Z,100695.25
2023-01-06T05:12:31.470Z,100688.94
2023-01-06T05:13:34.699Z,100690.59
2023-01-06T05:14:36.897Z,100688.09
2023-01-06T05:15:39.526Z,100683.22
2023-01-06T05:16:41.910Z,100685.09
2023-01-06T05:17:44.124Z,100686.78
2023-01-06T05:18:46.386Z,100681.53
2023-01-06T05:19:48.538Z,100687.03
2023-01-06T05:20:54.795Z,100684.28
2023-01-06T05:21:57.301Z,100686.78
2023-01-06T05:22:59.448Z,100700.50
2023-01-06T05:24:01.617Z,100694.19
2023-01-06T05:25:04.063Z,100689.31
2023-01-06T05:26:06.678Z,100695.88
2023-01-06T05:27:09.215Z,100692.91
2023-01-06T05:28:11.466Z,100692.03
2023-01-06T05:29:17.356Z,100692.03
2023-01-06T05:30:19.646Z,100682.97
2023-01-06T05:31:22.206Z,100685.72
2023-01-06T05:32:24.480Z,100680.47
2023-01-06T05:33:28.258Z,100686.78
2023-01-06T05:34:30.991Z,100688.47
2023-01-06T05:35:33.223Z,100684.66
2023-01-06T05:36:35.355Z,100679.19
2023-01-06T05:37:37.482Z,100671.19
2023-01-06T05:38:40.510Z,100681.06
2023-01-06T05:39:42.689Z,100671.19
2023-01-06T05:40:44.819Z,100676.44
2023-01-06T05:41:46.976Z,100678.31
2023-01-06T05:42:49.151Z,100666.50
2023-01-06T05:43:51.338Z,100673.06
2023-01-06T05:44:53.502Z,100669.50
2023-01-06T05:45:56.454Z,100664.00
2023-01-06T05:46:58.671Z,100676.03
2023-01-06T05:48:02.857Z,100673.28
2023-01-06T05:49:05.216Z,100666.97
2023-01-06T05:50:07.963Z,100662.06
2023-01-06T05:51:13.996Z,100664.00
2023-01-06T05:52:16.202Z,100659.56
2023-01-06T05:53:18.696Z,100673.28
2023-01-06T05:54:20.837Z,100672.47
2023-01-06T05:55:23.029Z,100662.31
2023-01-06T05:56:25.191Z,100659.81
2023-01-06T05:57:27.391Z,100656.22
2023-01-06T05:58:29.989Z,100659.81
2023-01-06T05:59:32.136Z,100661.72
2023-01-06T06:00:36.740Z,100662.78
2023-01-06T06:01:39.033Z,100657.28
2023-01-06T06:02:41.252Z,100660.03
2023-01-06T06:03:44.922Z,100653.91
2023-01-06T06:04:47.870Z,100657.53
2023-01-06T06:05:50.111Z,100662.78
2023-01-06T06:06:52.302Z,100663.59
2023-01-06T06:07:55.702Z,100659.19
2023-01-06T06:08:59.529Z,100659.41
2023-01-06T06:10:05.457Z,100653.91
2023-01-06T06:11:12.202Z,100659.41
2023-01-06T06:12:14.357Z,100658.34
2023-01-06T06:13:16.519Z,100654.53
2023-01-06T06:14:21.216Z,100663.59
2023-01-06T06:15:23.376Z,100658.34
2023-01-06T06:16:27.888Z,100656.91
2023-01-06T06:17:31.761Z,100662.38
2023-01-06T06:18:35.122Z,100662.16
2023-01-06T06:19:37.350Z,100655.84
2023-01-06T06:20:39.630Z,100651.41
2023-01-06T06:21:41.781Z,100654.16
2023-01-06T06:22:44.047Z,100656.91
2023-01-06T06:23:46.329Z,100651.41
2023-01-06T06:24:48.664Z,100656.06
2023-01-06T06:25:50.822Z,100662.38
2023-01-06T06:26:52.949Z,100656.91
2023-01-06T06:27:59.698Z,100656.06
2023-01-06T06:29:02.107Z,100670.38
2023-01-06T06:30:08.663Z,100670.84
2023-01-06T06:31:23.154Z,100659.63
2023-01-06T06:32:25.370Z,100662.38
2023-01-06T06:33:27.581Z,100662.38
2023-01-06T06:34:29.737Z,100654.38
2023-01-06T06:35:32.253Z,100658.81
2023-01-06T06:36:34.475Z,100661.56
2023-01-06T06:37:36.647Z,100659.63
2023-01-06T06:38:39.553Z,100663.00
2023-01-06T06:39:41.774Z,100658.59
2023-01-06T06:40:44.846Z,100652.47
2023-01-06T06:41:47.016Z,100651.41
2023-01-06T06:42:53.587Z,100649.72
2023-01-06T06:43:58.067Z,100648.66
2023-01-06T06:45:00.265Z,100650.56
2023-01-06T06:46:02.471Z,100646.75
2023-01-06T06:47:04.675Z,100642.34
2023-01-06T06:48:07.067Z,100642.94
2023-01-06T06:49:09.287Z,100643.78
2023-01-06T06:50:15.985Z,100636.63
2023-01-06T06:51:21.032Z,100636.16
2023-01-06T06:52:23.218Z,100633.41
2023-01-06T06:53:25.898Z,100638.91
2023-01-06T06:54:28.160Z,100635.31
2023-01-06T06:55:30.326Z,100638.06
2023-01-06T06:56:32.549Z,100637.22
2023-01-06T06:57:34.693Z,100637.22
2023-01-06T06:58:37.826Z,100644.63
2023-01-06T06:59:39.997Z,100637.44
2023-01-06T07:00:42.184Z,100646.31
2023-01-06T07:01:44.442Z,100635.31
2023-01-06T07:02:49.832Z,100646.31
2023-01-06T07:03:52.053Z,100641.63
2023-01-06T07:04:54.213Z,100646.31
2023-01-06T07:05:56.687Z,100637.44
2023-01-06T07:06:59.276Z,100638.31
2023-01-06T07:08:02.241Z,100640.19
2023-01-06T07:09:04.522Z,100643.16
2023-01-06T07:10:07.229Z,100645.69
2023-01-06T07:11:09.422Z,100643.16
2023-01-06T07:12:11.652Z,100647.38
2023-01-06T07:13:13.942Z,100650.13
2023-01-06T07:14:16.123Z,100649.06
2023-01-06T07:15:18.320Z,100646.31
2023-01-06T07:16:23.321Z,100647.59
2023-01-06T07:17:29.293Z,100649.06
2023-01-06T07:18:31.483Z,100644.63
2023-01-06T07:19:33.739Z,100644.00
2023-01-06T07:20:37.897Z,100638.31
2023-01-06T07:21:40.105Z,100634.69
2023-01-06T07:22:42.293Z,100632.81
2023-01-06T07:23:44.668Z,100633.63
2023-01-06T07:24:47.263Z,100634.47
2023-01-06T07:25:58.486Z,100634.47
2023-01-06T07:27:02.990Z,100639.38
2023-01-06T07:28:07.177Z,100627.31
2023-01-06T07:29:09.410Z,100628.97
2023-01-06T07:30:13.000Z,100624.34
2023-01-06T07:31:15.397Z,100623.72
2023-01-06T07:32:17.581Z,100618.00
2023-01-06T07:33:21.389Z,100615.03
2023-01-06T07:34:23.544Z,100616.94
2023-01-06T07:35:25.847Z,100613.34
2023-01-06T07:36:28.023Z,100613.34
2023-01-06T07:37:30.287Z,100609.56
2023-01-06T07:38:35.432Z,100602.16
2023-01-06T07:39:37.573Z,100609.56
2023-01-06T07:40:40.919Z,100611.22
2023-01-06T07:41:43.110Z,100618.38
2023-01-06T07:42:47.888Z,100602.97
2023-01-06T07:43:50.060Z,100604.66
2023-01-06T07:44:52.270Z,100609.31
2023-01-06T07:45:54.533Z,100604.41
2023-01-06T07:46:56.803Z,100598.09
2023-01-06T07:47:59.026Z,100599.78
2023-01-06T07:49:01.190Z,100600.63
2023-01-06T07:50:06.296Z,100607.78
2023-01-06T07:51:08.472Z,100602.31
2023-01-06T07:52:10.758Z,100604.41
2023-01-06T07:53:13.232Z,100599.78
2023-01-06T07:54:15.458Z,100599.78
2023-01-06T07:55:17.644Z,100603.13
2023-01-06T07:56:21.784Z,100599.31
2023-01-06T07:57:24.180Z,100594.88
2023-01-06T07:58:26.405Z,100601.25
2023-01-06T07:59:28.573Z,100605.63
2023-01-06T08:00:30.718Z,100604.81
2023-01-06T08:01:32.958Z,100605.44
2023-01-06T08:02:35.668Z,100604.34
2023-01-06T08:03:37.919Z,100604.34
2023-01-06T08:04:40.105Z,100604.34
2023-01-06T08:05:42.838Z,100599.47
2023-01-06T08:06:45.068Z,100600.53
2023-01-06T08:07:47.405Z,100592.06
2023-01-06T08:08:49.620Z,100589.53
2023-01-06T08:09:51.966Z,100598.41
2023-01-06T08:10:58.467Z,100592.69
2023-01-06T08:12:01.085Z,100583.38
2023-01-06T08:13:03.342Z,100590.75
2023-01-06T08:14:08.496Z,100586.97
2023-01-06T08:15:11.278Z,100592.22
2023-01-06T08:16:13.755Z,100598.31
2023-01-06T08:17:16.287Z,100601.06
2023-01-06T08:18:18.530Z,100591.78
2023-01-06T08:19:21.375Z,100604.44
2023-01-06T08:20:23.887Z,100584.97
2023-01-06T08:21:26.103Z,100593.44
2023-01-06T08:22:28.350Z,100584.13
2023-01-06T08:23:31.505Z,100580.06
2023-01-06T08:24:33.638Z,100578.19
2023-01-06T08:25:35.768Z,100585.56
2023-01-06T08:26:37.954Z,100591.69
2023-01-06T08:27:40.179Z,100579.84
2023-01-06T08:28:44.586Z,100577.94
2023-01-06T08:29:47.180Z,100575.78
2023-01-06T08:30:49.362Z,100576.41
2023-01-06T08:31:59.257Z,100580.84
2023-01-06T08:33:07.918Z,100575.94
2023-01-06T08:34:11.657Z,100580.13
2023-01-06T08:35:14.018Z,100579.94
2023-01-06T08:36:18.005Z,100575.50
2023-01-06T08:37:20.191Z,100570.59
2023-01-06T08:38:22.749Z,100573.13
2023-01-06T08:39:24.943Z,100574.56
2023-01-06T08:40:27.176Z,100580.66
2023-01-06T08:41:29.456Z,100576.84
2023-01-06T08:42:31.657Z,100574.72
2023-01-06T08:43:34.028Z,100569.84
2023-01-06T08:44:36.256Z,100570.22
2023-01-06T08:45:39.808Z,100585.41
2023-01-06T08:46:42.014Z,100590.19
2023-01-06T08:47:44.217Z,100590.31
2023-01-06T08:48:47.563Z,100589.88
2023-01-06T08:49:49.896Z,100592.75
2023-01-06T08:50:52.252Z,100589.28
2023-01-06T08:51:54.426Z,100595.78
2023-01-06T08:52:56.672Z,100588.75
2023-01-06T08:53:58.856Z,100597.13
2023-01-06T08:55:02.734Z,100598.09
2023-01-06T08:56:05.282Z,100600.97
2023-01-06T08:57:09.537Z,100600.47
2023-01-06T08:58:12.337Z,100603.38
2023-01-06T08:59:17.707Z,100606.25
2023-01-06T09:00:20.127Z,100596.44
2023-01-06T09:01:25.336Z,100595.97
2023-01-06T09:02:30.584Z,100598.88
2023-01-06T09:03:32.892Z,100599.22
2023-01-06T09:04:35.144Z,100600.44
2023-01-06T09:05:37.482Z,100598.03
2023-01-06T09:06:43.125Z,100593.94
2023-01-06T09:07:45.490Z,100594.56
2023-01-06T09:08:48.869Z,100596.63
2023-01-06T09:09:51.110Z,100591.69
2023-01-06T09:10:53.304Z,100591.22
2023-01-06T09:11:55.649Z,100599.00
2023-01-06T09:12:57.800Z,100601.25
2023-01-06T09:14:00.027Z,100602.94
2023-01-06T09:15:02.344Z,100611.56
2023-01-06T09:16:09.986Z,100608.31
2023-01-06T09:17:12.209Z,100600.06
2023-01-06T09:18:14.518Z,100607.25
2023-01-06T09:19:17.033Z,100608.94
2023-01-06T09:20:19.292Z,100611.19
2023-01-06T09:21:22.938Z,100610.13
2023-01-06T09:22:25.129Z,100608.19
2023-01-06T09:23:27.670Z,100604.38
2023-01-06T09:24:29.873Z,100610.50
2023-01-06T09:25:32.031Z,100614.91
2023-01-06T09:26:34.350Z,100615.50
2023-01-06T09:27:36.576Z,100608.91
2023-01-06T09:28:38.944Z,100610.59
2023-01-06T09:29:41.209Z,100617.75
2023-01-06T09:30:46.128Z,100608.44
2023-01-06T09:31:48.518Z,100610.09
2023-01-06T09:32:50.930Z,100604.34
2023-01-06T09:33:53.353Z,100607.97
2023-01-06T09:34:55.512Z,100602.22
2023-01-06T09:35:57.647Z,100599.22
2023-01-06T09:37:00.056Z,100605.31
2023-01-06T09:38:02.229Z,100606.97
2023-01-06T09:39:04.457Z,100595.75
2023-01-06T09:40:07.446Z,100603.75
2023-01-06T09:41:31.382Z,100592.75
2023-01-06T09:42:57.838Z,100600.50
2023-01-06T09:44:17.806Z,100603.00
2023-01-06T09:45:30.337Z,100592.84
2023-01-06T09:46:37.376Z,100593.47
2023-01-06T09:47:47.689Z,100595.97
2023-01-06T09:49:08.509Z,100587.50
2023-01-06T09:50:36.256Z,100591.06
2023-01-06T09:51:38.583Z,100588.06
2023-01-06T09:53:13.472Z,100578.72
2023-01-06T09:54:18.468Z,100580.16
2023-01-06T09:55:30.382Z,100582.91
2023-01-06T09:56:32.906Z,100580.75
2023-01-06T09:57:43.989Z,100585.16
2023-01-06T09:58:59.907Z,100575.81
2023-01-06T10:00:07.983Z,100567.09
2023-01-06T10:01:13.233Z,100572.34
2023-01-06T10:02:23.585Z,100566.59
2023-01-06T10:03:27.301Z,100565.50
2023-01-06T10:04:30.799Z,100568.84
2023-01-06T10:06:00.267Z,100566.69
2023-01-06T10:07:21.377Z,100557.09
2023-01-06T10:09:09.372Z,100556.59
2023-01-06T10:10:23.766Z,100562.47
2023-01-06T10:12:15.713Z,100555.88
2023-01-06T10:13:39.155Z,100555.38
2023-01-06T10:14:50.579Z,100548.78
2023-01-06T10:16:31.380Z,100537.25
2023-01-06T10:18:09.474Z,100540.34
2023-01-06T10:19:45.257Z,100544.53
2023-01-06T10:21:25.138Z,100543.22
2023-01-06T10:22:45.202Z,100548.00
2023-01-06T10:24:18.184Z,100550.50
2023-01-06T10:25:33.072Z,100557.19
2023-01-06T10:26:43.911Z,100548.66
2023-01-06T10:27:54.909Z,100550.09
2023-01-06T10:29:06.203Z,100551.50
2023-01-06T10:30:43.893Z,100551.25
2023-01-06T10:31:49.317Z,100548.03
2023-01-06T10:32:52.006Z,100554.13
2023-01-06T10:33:57.052Z,100548.34
2023-01-06T10:35:00.697Z,100549.75
2023-01-06T10:36:03.204Z,100537.66
2023-01-06T10:37:17.509Z,100534.41
2023-01-06T10:38:26.783Z,100538.81
2023-01-06T10:39:30.254Z,100536.66
2023-01-06T10:40:33.337Z,100527.31
2023-01-06T10:42:18.936Z,100529.00
2023-01-06T10:43:23.627Z,100525.72
2023-01-06T10:44:25.874Z,100521.88
2023-01-06T10:45:40.001Z,100515.03
2023-01-06T10:46:45.349Z,100516.44
2023-01-06T10:47:47.669Z,100516.19
2023-01-06T10:48:50.012Z,100514.25
2023-01-06T10:49:52.441Z,100519.53
2023-01-06T10:50:57.046Z,100512.66
2023-01-06T10:52:04.111Z,100509.69
2023-01-06T10:53:06.337Z,100509.41
2023-01-06T10:54:19.685Z,100507.22
2023-01-06T10:55:24.987Z,100498.72
2023-01-06T10:56:29.338Z,100501.22
2023-01-06T10:57:38.520Z,100496.28
2023-01-06T10:58:54.121Z,100493.03
2023-01-06T11:00:16.049Z,100492.75
2023-01-06T11:01:27.720Z,100492.50
2023-01-06T11:02:30.059Z,100486.72
2023-01-06T11:03:34.199Z,100485.38
2023-01-06T11:04:51.383Z,100495.34
2023-01-06T11:06:06.889Z,100490.41
2023-01-06T11:07:14.847Z,100492.66
2023-01-06T11:08:20.261Z,100502.63
2023-01-06T11:09:30.779Z,100487.47
2023-01-06T11:10:41.981Z,100488.03
2023-01-06T11:11:50.035Z,100485.88
2023-01-06T11:12:52.410Z,100478.16
2023-01-06T11:13:57.758Z,100486.22
2023-01-06T11:15:06.464Z,100472.72
2023-01-06T11:16:24.265Z,100480.78
2023-01-06T11:17:28.546Z,100486.59
2023-01-06T11:18:33.951Z,100478.91
2023-01-06T11:19:43.318Z,100481.41
2023-01-06T11:20:46.535Z,100482.00
2023-01-06T11:21:48.726Z,100480.66
2023-01-06T11:22:51.196Z,100472.13
2023-01-06T11:24:14.685Z,100476.28
2023-01-06T11:25:19.679Z,100472.19
2023-01-06T11:26:23.717Z,100466.41
2023-01-06T11:27:26.007Z,100467.00
2023-01-06T11:28:28.714Z,100471.16
2023-01-06T11:29:33.385Z,100461.75
2023-01-06T11:30:42.810Z,100469.81
2023-01-06T11:31:49.101Z,100466.78
2023-01-06T11:32:51.371Z,100466.25
2023-01-06T11:33:59.416Z,100477.06
2023-01-06T11:35:05.118Z,100474.88
2023-01-06T11:36:10.846Z,100482.06
2023-01-06T11:37:13.090Z,100478.19
2023-01-06T11:38:17.723Z,100481.28
2023-01-06T11:39:31.574Z,100479.94
2023-01-06T11:40:37.450Z,100478.84
2023-01-06T11:41:44.211Z,100476.91
2023-01-06T11:42:58.214Z,100478.59
2023-01-06T11:44:17.307Z,100483.84
2023-01-06T11:45:36.886Z,100481.94
2023-01-06T11:46:46.224Z,100484.44
2023-01-06T11:47:49.775Z,100480.84
2023-01-06T11:49:04.438Z,100486.38
2023-01-06T11:50:06.966Z,100479.72
2023-01-06T11:51:10.487Z,100489.69
2023-01-06T11:52:31.403Z,100478.66
2023-01-06T11:53:34.514Z,100478.38
2023-01-06T11:54:39.994Z,100488.63
2023-01-06T11:55:42.361Z,100489.44
2023-01-06T11:56:58.242Z,100498.56
2023-01-06T11:58:08.667Z,100497.72
2023-01-06T11:59:14.746Z,100503.50
2023-01-06T12:00:22.755Z,100501.59
2023-01-06T12:01:33.569Z,100503.50
2023-01-06T12:03:11.332Z,100503.78
2023-01-06T12:04:41.993Z,100502.38
2023-01-06T12:06:12.088Z,100500.69
2023-01-06T12:07:38.425Z,100504.53
2023-01-06T12:08:51.338Z,100500.63
2023-01-06T12:09:58.785Z,100508.91
2023-01-06T12:11:13.903Z,100504.47
2023-01-06T12:12:27.745Z,100503.06
2023-01-06T12:13:30.103Z,100495.31
2023-01-06T12:14:36.739Z,100504.66
2023-01-06T12:15:42.203Z,100501.09
2023-01-06T12:16:48.395Z,100494.97
2023-01-06T12:18:23.245Z,100493.31
2023-01-06T12:19:35.438Z,100499.94
2023-01-06T12:20:41.558Z,100509.91
2023-01-06T12:21:43.745Z,100503.53
2023-01-06T12:22:50.331Z,100503.78
2023-01-06T12:23:53.714Z,100508.47
2023-01-06T12:24:57.884Z,100507.63
2023-01-06T12:26:04.083Z,100502.09
2023-01-06T12:27:08.125Z,100494.09
2023-01-06T12:28:20.173Z,100502.38
2023-01-06T12:29:25.758Z,100501.53
2023-01-06T12:30:49.096Z,100496.03
2023-01-06T12:32:02.712Z,100493.25
2023-01-06T12:33:19.980Z,100494.34
2023-01-06T12:34:29.759Z,100483.56
2023-01-06T12:35:34.671Z,100491.59
2023-01-06T12:37:29.771Z,100481.88
2023-01-06T12:38:53.057Z,100487.41
2023-01-06T12:40:15.146Z,100487.66
2023-01-06T12:41:24.716Z,100493.75
2023-01-06T12:42:37.351Z,100486.56
2023-01-06T12:43:44.931Z,100495.69
2023-01-06T12:45:01.636Z,100490.16
2023-01-06T12:46:22.390Z,100492.94